createdAt,value
2017-10-05T00:00:26.483Z,993.17
2017-10-05T00:01:26.494Z,993.14
2017-10-05T00:02:26.500Z,993.10
2017-10-05T00:03:26.503Z,993.09
2017-10-05T00:04:26.506Z,993.13
2017-10-05T00:05:26.508Z,993.10
2017-10-05T00:06:26.541Z,993.16
2017-10-05T00:07:26.520Z,993.11
2017-10-05T00:08:26.550Z,993.12
2017-10-05T00:09:26.542Z,993.06
2017-10-05T00:10:26.551Z,993.13
2017-10-05T00:11:26.566Z,993.10
2017-10-05T00:12:26.571Z,993.06
2017-10-05T00:13:26.604Z,993.09
2017-10-05T00:14:26.588Z,993.08
2017-10-05T00:15:26.587Z,993.02
2017-10-05T00:16:26.602Z,993.01
2017-10-05T00:17:26.610Z,993.01
2017-10-05T00:18:26.642Z,993.00
2017-10-05T00:19:26.642Z,992.94
2017-10-05T00:20:26.642Z,992.95
2017-10-05T00:21:26.639Z,993.03
2017-10-05T00:22:26.666Z,992.92
2017-10-05T00:23:26.659Z,992.97
2017-10-05T00:24:26.685Z,992.95
2017-10-05T00:25:26.655Z,992.93
2017-10-05T00:26:26.675Z,992.94
2017-10-05T00:27:26.692Z,992.93
2017-10-05T00:28:26.702Z,992.87
2017-10-05T00:29:26.693Z,992.88
2017-10-05T00:30:26.739Z,992.86
2017-10-05T00:31:26.733Z,992.84
2017-10-05T00:32:26.739Z,992.80
2017-10-05T00:33:26.740Z,992.78
2017-10-05T00:34:26.758Z,992.76
2017-10-05T00:35:26.766Z,992.75
2017-10-05T00:36:26.808Z,992.75
2017-10-05T00:37:26.760Z,992.77
2017-10-05T00:38:26.772Z,992.77
2017-10-05T00:39:26.792Z,992.73
2017-10-05T00:40:26.806Z,992.71
2017-10-05T00:41:26.790Z,992.68
2017-10-05T00:42:26.828Z,992.68
2017-10-05T00:43:26.862Z,992.68
2017-10-05T00:44:26.809Z,992.67
2017-10-05T00:45:26.828Z,992.63
2017-10-05T00:46:26.839Z,992.65
2017-10-05T00:47:26.834Z,992.59
2017-10-05T00:48:26.858Z,992.60
2017-10-05T00:49:26.860Z,992.65
2017-10-05T00:50:26.881Z,992.60
2017-10-05T00:51:26.916Z,992.59
2017-10-05T00:52:26.877Z,992.53
2017-10-05T00:53:26.895Z,992.53
2017-10-05T00:54:26.925Z,992.54
2017-10-05T00:55:26.930Z,992.50
2017-10-05T00:56:26.927Z,992.56
2017-10-05T00:57:26.957Z,992.55
2017-10-05T00:58:26.933Z,992.56
2017-10-05T00:59:26.968Z,992.55
2017-10-05T01:00:26.953Z,992.53
2017-10-05T01:01:26.981Z,992.52
2017-10-05T01:02:26.951Z,992.53
2017-10-05T01:03:26.987Z,992.52
2017-10-05T01:04:26.983Z,992.48
2017-10-05T01:05:26.989Z,992.49
2017-10-05T01:06:26.988Z,992.45
2017-10-05T01:07:27.011Z,992.51
2017-10-05T01:08:27.002Z,992.47
2017-10-05T01:09:27.016Z,992.48
2017-10-05T01:10:27.023Z,992.41
2017-10-05T01:11:27.041Z,992.42
2017-10-05T01:12:27.072Z,992.40
2017-10-05T01:13:27.098Z,992.42
2017-10-05T01:14:27.069Z,992.41
2017-10-05T01:15:27.082Z,992.41
2017-10-05T01:16:27.075Z,992.40
2017-10-05T01:17:27.103Z,992.42
2017-10-05T01:18:27.126Z,992.44
2017-10-05T01:19:27.131Z,992.35
2017-10-05T01:20:27.100Z,992.34
2017-10-05T01:21:27.112Z,992.29
2017-10-05T01:22:27.121Z,992.30
2017-10-05T01:23:27.131Z,992.27
2017-10-05T01:24:27.128Z,992.26
2017-10-05T01:25:27.158Z,992.26
2017-10-05T01:26:27.161Z,992.19
2017-10-05T01:27:27.160Z,992.17
2017-10-05T01:28:27.182Z,992.10
2017-10-05T01:29:27.198Z,992.02
2017-10-05T01:30:27.225Z,992.00
2017-10-05T01:31:27.189Z,991.99
2017-10-05T01:32:27.206Z,991.94
2017-10-05T01:33:27.220Z,991.93
2017-10-05T01:34:27.262Z,991.89
2017-10-05T01:35:27.221Z,991.86
2017-10-05T01:36:27.238Z,991.83
2017-10-05T01:37:27.246Z,991.82
2017-10-05T01:38:27.291Z,991.80
2017-10-05T01:39:27.270Z,991.75
2017-10-05T01:40:27.265Z,991.73
2017-10-05T01:41:27.281Z,991.73
2017-10-05T01:42:27.299Z,991.74
2017-10-05T01:43:27.282Z,991.71
2017-10-05T01:44:27.322Z,991.70
2017-10-05T01:45:27.333Z,991.66
2017-10-05T01:46:27.316Z,991.62
2017-10-05T01:47:27.323Z,991.66
2017-10-05T01:48:27.353Z,991.60
2017-10-05T01:49:27.349Z,991.54
2017-10-05T01:50:27.348Z,991.47
2017-10-05T01:51:27.397Z,991.47
2017-10-05T01:52:27.393Z,991.48
2017-10-05T01:53:27.387Z,991.47
2017-10-05T01:54:27.381Z,991.45
2017-10-05T01:55:27.415Z,991.35
2017-10-05T01:56:27.414Z,991.32
2017-10-05T01:57:27.404Z,991.30
2017-10-05T01:58:27.398Z,991.29
2017-10-05T01:59:27.428Z,991.29
2017-10-05T02:00:27.423Z,991.30
2017-10-05T02:01:27.444Z,991.29
2017-10-05T02:02:27.468Z,991.23
2017-10-05T02:03:27.460Z,991.21
2017-10-05T02:04:27.443Z,991.22
2017-10-05T02:05:27.462Z,991.22
2017-10-05T02:06:27.483Z,991.20
2017-10-05T02:07:27.486Z,991.14
2017-10-05T02:08:27.499Z,991.17
2017-10-05T02:09:27.483Z,991.14
2017-10-05T02:10:27.506Z,991.16
2017-10-05T02:11:27.510Z,991.09
2017-10-05T02:12:27.504Z,991.08
2017-10-05T02:13:27.533Z,991.07
2017-10-05T02:14:27.524Z,991.01
2017-10-05T02:15:27.568Z,991.00
2017-10-05T02:16:27.563Z,991.01
2017-10-05T02:17:27.572Z,990.97
2017-10-05T02:18:27.577Z,990.92
2017-10-05T02:19:27.617Z,990.99
2017-10-05T02:20:27.608Z,990.95
2017-10-05T02:21:27.605Z,990.89
2017-10-05T02:22:27.600Z,990.87
2017-10-05T02:23:27.602Z,990.81
2017-10-05T02:24:27.607Z,990.82
2017-10-05T02:25:27.672Z,990.79
2017-10-05T02:26:27.638Z,990.76
2017-10-05T02:27:27.629Z,990.74
2017-10-05T02:28:27.629Z,990.75
2017-10-05T02:29:27.691Z,990.71
2017-10-05T02:30:27.680Z,990.71
2017-10-05T02:31:27.692Z,990.67
2017-10-05T02:32:27.693Z,990.73
2017-10-05T02:33:27.686Z,990.69
2017-10-05T02:34:27.685Z,990.60
2017-10-05T02:35:27.780Z,990.66
2017-10-05T02:36:27.692Z,990.66
2017-10-05T02:37:27.712Z,990.70
2017-10-05T02:38:27.751Z,990.68
2017-10-05T02:39:27.737Z,990.69
2017-10-05T02:40:27.736Z,990.67
2017-10-05T02:41:27.741Z,990.66
2017-10-05T02:42:27.782Z,990.68
2017-10-05T02:43:27.775Z,990.64
2017-10-05T02:44:27.777Z,990.62
2017-10-05T02:45:27.785Z,990.61
2017-10-05T02:46:27.807Z,990.60
2017-10-05T02:47:27.783Z,990.67
2017-10-05T02:48:27.788Z,990.65
2017-10-05T02:49:27.793Z,990.66
2017-10-05T02:50:27.817Z,990.63
2017-10-05T02:51:27.835Z,990.59
2017-10-05T02:52:27.818Z,990.61
2017-10-05T02:53:27.861Z,990.56
2017-10-05T02:54:27.843Z,990.55
2017-10-05T02:55:27.865Z,990.52
2017-10-05T02:56:27.857Z,990.54
2017-10-05T02:57:27.892Z,990.52
2017-10-05T02:58:27.863Z,990.50
2017-10-05T02:59:27.885Z,990.43
2017-10-05T03:00:27.886Z,990.43
2017-10-05T03:01:27.907Z,990.42
2017-10-05T03:02:27.912Z,990.41
2017-10-05T03:03:27.910Z,990.38
2017-10-05T03:04:27.924Z,990.39
2017-10-05T03:05:27.941Z,990.41
2017-10-05T03:06:27.947Z,990.43
2017-10-05T03:07:27.959Z,990.37
2017-10-05T03:08:27.944Z,990.44
2017-10-05T03:09:27.985Z,990.43
2017-10-05T03:10:27.992Z,990.42
2017-10-05T03:11:27.979Z,990.42
2017-10-05T03:12:27.982Z,990.41
2017-10-05T03:13:27.984Z,990.37
2017-10-05T03:14:28.011Z,990.35
2017-10-05T03:15:28.014Z,990.40
2017-10-05T03:16:28.016Z,990.39
2017-10-05T03:17:28.047Z,990.34
2017-10-05T03:18:28.026Z,990.38
2017-10-05T03:19:28.034Z,990.32
2017-10-05T03:20:28.079Z,990.38
2017-10-05T03:21:28.049Z,990.30
2017-10-05T03:22:28.061Z,990.25
2017-10-05T03:23:28.062Z,990.27
2017-10-05T03:24:28.070Z,990.24
2017-10-05T03:25:28.100Z,990.21
2017-10-05T03:26:28.122Z,990.23
2017-10-05T03:27:28.107Z,990.23
2017-10-05T03:28:28.094Z,990.19
2017-10-05T03:29:28.104Z,990.11
2017-10-05T03:30:28.117Z,990.10
2017-10-05T03:31:28.125Z,990.08
2017-10-05T03:32:28.153Z,990.02
2017-10-05T03:33:28.153Z,989.95
2017-10-05T03:34:28.178Z,989.91
2017-10-05T03:35:28.154Z,989.88
2017-10-05T03:36:28.178Z,989.84
2017-10-05T03:37:28.172Z,989.83
2017-10-05T03:38:28.172Z,989.78
2017-10-05T03:39:28.185Z,989.82
2017-10-05T03:40:28.201Z,989.83
2017-10-05T03:41:28.191Z,989.81
2017-10-05T03:42:28.208Z,989.81
2017-10-05T03:43:28.209Z,989.73
2017-10-05T03:44:28.219Z,989.71
2017-10-05T03:45:28.239Z,989.69
2017-10-05T03:46:28.215Z,989.66
2017-10-05T03:47:28.268Z,989.67
2017-10-05T03:48:28.241Z,989.60
2017-10-05T03:49:28.278Z,989.63
2017-10-05T03:50:28.255Z,989.62
2017-10-05T03:51:28.269Z,989.61
2017-10-05T03:52:28.281Z,989.54
2017-10-05T03:53:28.321Z,989.53
2017-10-05T03:54:28.280Z,989.42
2017-10-05T03:55:28.311Z,989.46
2017-10-05T03:56:28.306Z,989.44
2017-10-05T03:57:28.328Z,989.37
2017-10-05T03:58:28.315Z,989.35
2017-10-05T03:59:28.347Z,989.36
2017-10-05T04:00:28.329Z,989.29
2017-10-05T04:01:28.337Z,989.30
2017-10-05T04:02:28.363Z,989.29
2017-10-05T04:03:28.413Z,989.29
2017-10-05T04:04:28.371Z,989.25
2017-10-05T04:05:28.373Z,989.27
2017-10-05T04:06:28.382Z,989.20
2017-10-05T04:07:28.408Z,989.24
2017-10-05T04:08:28.399Z,989.23
2017-10-05T04:09:28.398Z,989.19
2017-10-05T04:10:28.398Z,989.19
2017-10-05T04:11:28.425Z,989.18
2017-10-05T04:12:28.422Z,989.21
2017-10-05T04:13:28.454Z,989.20
2017-10-05T04:14:28.428Z,989.17
2017-10-05T04:15:28.441Z,989.09
2017-10-05T04:16:28.459Z,989.03
2017-10-05T04:17:28.461Z,988.98
2017-10-05T04:18:28.451Z,989.02
2017-10-05T04:19:28.450Z,989.02
2017-10-05T04:20:28.489Z,989.01
2017-10-05T04:21:28.479Z,988.99
2017-10-05T04:22:28.488Z,989.01
2017-10-05T04:23:28.497Z,988.96
2017-10-05T04:24:28.515Z,988.87
2017-10-05T04:25:28.499Z,988.82
2017-10-05T04:26:28.506Z,988.85
2017-10-05T04:27:28.562Z,988.84
2017-10-05T04:28:28.534Z,988.76
2017-10-05T04:29:28.548Z,988.80
2017-10-05T04:30:28.524Z,988.76
2017-10-05T04:31:28.554Z,988.77
2017-10-05T04:32:28.565Z,988.72
2017-10-05T04:33:28.560Z,988.70
2017-10-05T04:34:28.572Z,988.66
2017-10-05T04:35:28.596Z,988.69
2017-10-05T04:36:28.573Z,988.62
2017-10-05T04:37:28.585Z,988.62
2017-10-05T04:38:28.584Z,988.65
2017-10-05T04:39:28.604Z,988.66
2017-10-05T04:40:28.607Z,988.67
2017-10-05T04:41:28.623Z,988.68
2017-10-05T04:42:28.603Z,988.68
2017-10-05T04:43:28.633Z,988.64
2017-10-05T04:44:28.655Z,988.63
2017-10-05T04:45:28.651Z,988.60
2017-10-05T04:46:28.659Z,988.63
2017-10-05T04:47:28.646Z,988.64
2017-10-05T04:48:28.671Z,988.61
2017-10-05T04:49:28.678Z,988.58
2017-10-05T04:50:28.685Z,988.62
2017-10-05T04:51:28.702Z,988.69
2017-10-05T04:52:28.731Z,988.68
2017-10-05T04:53:28.696Z,988.67
2017-10-05T04:54:28.694Z,988.65
2017-10-05T04:55:28.713Z,988.71
2017-10-05T04:56:28.746Z,988.71
2017-10-05T04:57:28.749Z,988.69
2017-10-05T04:58:28.722Z,988.71
2017-10-05T04:59:28.734Z,988.69
2017-10-05T05:00:28.745Z,988.72
2017-10-05T05:01:28.757Z,988.75
2017-10-05T05:02:28.780Z,988.66
2017-10-05T05:03:28.786Z,988.70
2017-10-05T05:04:28.766Z,988.64
2017-10-05T05:05:28.780Z,988.65
2017-10-05T05:06:28.791Z,988.59
2017-10-05T05:07:28.784Z,988.62
2017-10-05T05:08:28.823Z,988.61
2017-10-05T05:09:28.791Z,988.61
2017-10-05T05:10:28.810Z,988.57
2017-10-05T05:11:28.810Z,988.58
2017-10-05T05:12:28.831Z,988.58
2017-10-05T05:13:28.833Z,988.55
2017-10-05T05:14:28.864Z,988.61
2017-10-05T05:15:28.854Z,988.58
2017-10-05T05:16:28.852Z,988.57
2017-10-05T05:17:28.856Z,988.59
2017-10-05T05:18:28.861Z,988.55
2017-10-05T05:19:28.861Z,988.50
2017-10-05T05:20:28.870Z,988.42
2017-10-05T05:21:28.880Z,988.38
2017-10-05T05:22:28.893Z,988.38
2017-10-05T05:23:28.888Z,988.39
2017-10-05T05:24:28.910Z,988.38
2017-10-05T05:25:28.914Z,988.37
2017-10-05T05:26:28.966Z,988.41
2017-10-05T05:27:28.929Z,988.40
2017-10-05T05:28:28.927Z,988.41
2017-10-05T05:29:28.964Z,988.34
2017-10-05T05:30:28.961Z,988.37
2017-10-05T05:31:28.957Z,988.30
2017-10-05T05:32:28.982Z,988.27
2017-10-05T05:33:28.980Z,988.25
2017-10-05T05:34:28.977Z,988.27
2017-10-05T05:35:28.981Z,988.20
2017-10-05T05:36:28.990Z,988.31
2017-10-05T05:37:29.010Z,988.14
2017-10-05T05:38:29.001Z,988.17
2017-10-05T05:39:29.029Z,988.17
2017-10-05T05:40:29.019Z,988.14
2017-10-05T05:41:29.029Z,988.17
2017-10-05T05:42:29.032Z,988.11
2017-10-05T05:43:29.041Z,988.14
2017-10-05T05:44:29.057Z,988.13
2017-10-05T05:45:29.052Z,988.11
2017-10-05T05:46:29.064Z,988.09
2017-10-05T05:47:29.052Z,988.06
2017-10-05T05:48:29.065Z,988.09
2017-10-05T05:49:29.104Z,988.08
2017-10-05T05:50:29.120Z,988.04
2017-10-05T05:51:29.101Z,988.04
2017-10-05T05:52:29.099Z,988.06
2017-10-05T05:53:29.111Z,988.05
2017-10-05T05:54:29.111Z,988.03
2017-10-05T05:55:29.123Z,987.97
2017-10-05T05:56:29.110Z,988.04
2017-10-05T05:57:29.153Z,988.03
2017-10-05T05:58:29.139Z,988.04
2017-10-05T05:59:29.167Z,987.95
2017-10-05T06:00:29.159Z,987.99
2017-10-05T06:01:29.157Z,987.94
2017-10-05T06:02:29.158Z,987.98
2017-10-05T06:03:29.174Z,988.00
2017-10-05T06:04:29.202Z,988.00
2017-10-05T06:05:29.186Z,987.96
2017-10-05T06:06:29.199Z,987.92
2017-10-05T06:07:29.199Z,987.90
2017-10-05T06:08:29.206Z,987.85
2017-10-05T06:09:29.209Z,987.82
2017-10-05T06:10:29.266Z,987.80
2017-10-05T06:11:29.235Z,987.82
2017-10-05T06:12:29.248Z,987.79
2017-10-05T06:13:29.247Z,987.76
2017-10-05T06:14:29.262Z,987.80
2017-10-05T06:15:29.254Z,987.74
2017-10-05T06:16:29.264Z,987.74
2017-10-05T06:17:29.268Z,987.77
2017-10-05T06:18:29.301Z,987.79
2017-10-05T06:19:29.301Z,987.77
2017-10-05T06:20:29.296Z,987.75
2017-10-05T06:21:29.324Z,987.78
2017-10-05T06:22:29.342Z,987.73
2017-10-05T06:23:29.340Z,987.73
2017-10-05T06:24:29.325Z,987.71
2017-10-05T06:25:29.394Z,987.67
2017-10-05T06:26:29.338Z,987.64
2017-10-05T06:27:29.383Z,987.63
2017-10-05T06:28:29.345Z,987.65
2017-10-05T06:29:29.380Z,987.59
2017-10-05T06:30:29.385Z,987.60
2017-10-05T06:31:29.374Z,987.64
2017-10-05T06:32:29.402Z,987.57
2017-10-05T06:33:29.386Z,987.63
2017-10-05T06:34:29.423Z,987.60
2017-10-05T06:35:29.425Z,987.55
2017-10-05T06:36:29.426Z,987.62
2017-10-05T06:37:29.423Z,987.55
2017-10-05T06:38:29.463Z,987.56
2017-10-05T06:39:29.468Z,987.53
2017-10-05T06:40:29.463Z,987.50
2017-10-05T06:41:29.449Z,987.52
2017-10-05T06:42:29.465Z,987.49
2017-10-05T06:43:29.471Z,987.50
2017-10-05T06:44:29.475Z,987.52
2017-10-05T06:45:29.496Z,987.54
2017-10-05T06:46:29.488Z,987.54
2017-10-05T06:47:29.518Z,987.47
2017-10-05T06:48:29.521Z,987.50
2017-10-05T06:49:29.528Z,987.46
2017-10-05T06:50:29.521Z,987.42
2017-10-05T06:51:29.546Z,987.44
2017-10-05T06:52:29.560Z,987.35
2017-10-05T06:53:29.590Z,987.38
2017-10-05T06:54:29.546Z,987.35
2017-10-05T06:55:29.579Z,987.28
2017-10-05T06:56:29.597Z,987.36
2017-10-05T06:57:29.573Z,987.43
2017-10-05T06:58:29.605Z,987.37
2017-10-05T06:59:29.585Z,987.43
2017-10-05T07:00:29.624Z,987.48
2017-10-05T07:01:29.591Z,987.47
2017-10-05T07:02:29.629Z,987.42
2017-10-05T07:03:29.651Z,987.38
2017-10-05T07:04:29.626Z,987.32
2017-10-05T07:05:29.644Z,987.29
2017-10-05T07:06:29.644Z,987.31
2017-10-05T07:07:29.646Z,987.31
2017-10-05T07:08:29.656Z,987.33
2017-10-05T07:09:29.656Z,987.30
2017-10-05T07:10:29.710Z,987.23
2017-10-05T07:11:29.685Z,987.20
2017-10-05T07:12:29.721Z,987.17
2017-10-05T07:13:29.729Z,987.13
2017-10-05T07:14:29.747Z,987.15
2017-10-05T07:15:29.734Z,987.12
2017-10-05T07:16:29.741Z,987.05
2017-10-05T07:17:29.748Z,987.09
2017-10-05T07:18:29.774Z,987.10
2017-10-05T07:19:29.754Z,987.06
2017-10-05T07:20:29.761Z,987.02
2017-10-05T07:21:29.756Z,987.01
2017-10-05T07:22:29.774Z,987.10
2017-10-05T07:23:29.780Z,987.09
2017-10-05T07:24:29.802Z,987.05
2017-10-05T07:25:29.818Z,987.07
2017-10-05T07:26:29.821Z,987.16
2017-10-05T07:27:29.827Z,987.13
2017-10-05T07:28:29.868Z,987.14
2017-10-05T07:29:29.843Z,987.12
2017-10-05T07:30:29.855Z,987.14
2017-10-05T07:31:29.893Z,987.08
2017-10-05T07:32:29.871Z,987.15
2017-10-05T07:33:29.897Z,987.09
2017-10-05T07:34:29.903Z,987.12
2017-10-05T07:35:29.897Z,987.18
2017-10-05T07:36:29.940Z,987.16
2017-10-05T07:37:29.928Z,987.19
2017-10-05T07:38:29.952Z,987.19
2017-10-05T07:39:29.979Z,987.13
2017-10-05T07:40:29.968Z,987.23
2017-10-05T07:41:29.989Z,987.24
2017-10-05T07:42:29.988Z,987.20
2017-10-05T07:43:29.987Z,987.23
2017-10-05T07:44:30.027Z,987.22
2017-10-05T07:45:30.037Z,987.20
2017-10-05T07:46:30.049Z,987.25
2017-10-05T07:47:30.025Z,987.29
2017-10-05T07:48:30.038Z,987.25
2017-10-05T07:49:30.084Z,987.27
2017-10-05T07:50:30.067Z,987.24
2017-10-05T07:51:30.074Z,987.28
2017-10-05T07:52:30.073Z,987.20
2017-10-05T07:53:30.127Z,987.17
2017-10-05T07:54:30.119Z,987.10
2017-10-05T07:55:30.118Z,987.18
2017-10-05T07:56:30.133Z,987.10
2017-10-05T07:57:30.138Z,987.16
2017-10-05T07:58:30.153Z,987.10
2017-10-05T07:59:30.171Z,987.10
2017-10-05T08:00:30.158Z,987.01
2017-10-05T08:01:30.173Z,987.04
2017-10-05T08:02:30.242Z,987.08
2017-10-05T08:03:30.196Z,987.03
2017-10-05T08:04:30.229Z,986.99
2017-10-05T08:05:30.249Z,987.00
2017-10-05T08:06:30.247Z,986.90
2017-10-05T08:07:30.261Z,986.94
2017-10-05T08:08:30.274Z,986.94
2017-10-05T08:09:30.284Z,986.95
2017-10-05T08:10:30.287Z,986.89
2017-10-05T08:11:30.325Z,986.81
2017-10-05T08:12:30.303Z,986.86
2017-10-05T08:13:30.316Z,986.85
2017-10-05T08:14:30.328Z,986.84
2017-10-05T08:15:30.335Z,986.74
2017-10-05T08:16:30.345Z,986.74
2017-10-05T08:17:30.364Z,986.81
2017-10-05T08:18:30.361Z,986.83
2017-10-05T08:19:30.377Z,986.67
2017-10-05T08:20:30.380Z,986.72
2017-10-05T08:21:30.425Z,986.73
2017-10-05T08:22:30.412Z,986.77
2017-10-05T08:23:30.487Z,986.71
2017-10-05T08:24:30.430Z,986.66
2017-10-05T08:25:30.445Z,986.74
2017-10-05T08:26:30.446Z,986.72
2017-10-05T08:27:30.469Z,986.68
2017-10-05T08:28:30.499Z,986.72
2017-10-05T08:29:30.489Z,986.72
2017-10-05T08:30:30.523Z,986.70
2017-10-05T08:31:30.537Z,986.72
2017-10-05T08:32:30.520Z,986.74
2017-10-05T08:33:30.543Z,986.69
2017-10-05T08:34:30.524Z,986.75
2017-10-05T08:35:30.559Z,986.71
2017-10-05T08:36:30.606Z,986.79
2017-10-05T08:37:30.555Z,986.65
2017-10-05T08:38:30.561Z,986.63
2017-10-05T08:39:30.570Z,986.59
2017-10-05T08:40:30.609Z,986.69
2017-10-05T08:41:30.577Z,986.47
2017-10-05T08:42:30.594Z,986.61
2017-10-05T08:43:30.618Z,986.57
2017-10-05T08:44:30.675Z,986.61
2017-10-05T08:45:30.639Z,986.52
2017-10-05T08:46:30.654Z,986.44
2017-10-05T08:47:30.648Z,986.47
2017-10-05T08:48:30.683Z,986.50
2017-10-05T08:49:30.706Z,986.48
2017-10-05T08:50:30.679Z,986.36
2017-10-05T08:51:30.677Z,986.38
2017-10-05T08:52:30.711Z,986.32
2017-10-05T08:53:30.752Z,986.39
2017-10-05T08:54:30.715Z,986.30
2017-10-05T08:55:30.721Z,986.40
2017-10-05T08:56:30.724Z,986.36
2017-10-05T08:57:30.738Z,986.35
2017-10-05T08:58:30.778Z,986.35
2017-10-05T08:59:30.749Z,986.28
2017-10-05T09:00:30.765Z,986.34
2017-10-05T09:01:30.773Z,986.33
2017-10-05T09:02:30.812Z,986.31
2017-10-05T09:03:30.797Z,986.30
2017-10-05T09:04:30.804Z,986.27
2017-10-05T09:05:30.856Z,986.29
2017-10-05T09:06:30.860Z,986.40
2017-10-05T09:07:30.840Z,986.42
2017-10-05T09:08:30.837Z,986.23
2017-10-05T09:09:30.863Z,986.25
2017-10-05T09:10:30.885Z,986.21
2017-10-05T09:11:30.896Z,986.32
2017-10-05T09:12:30.901Z,986.25
2017-10-05T09:13:30.914Z,986.23
2017-10-05T09:14:30.901Z,986.26
2017-10-05T09:15:30.915Z,986.22
2017-10-05T09:16:30.907Z,986.17
2017-10-05T09:17:30.955Z,986.17
2017-10-05T09:18:30.941Z,986.20
2017-10-05T09:19:31.077Z,985.97
2017-10-05T09:20:30.950Z,986.10
2017-10-05T09:21:31.088Z,986.09
2017-10-05T09:22:30.999Z,986.18
2017-10-05T09:23:31.010Z,986.09
2017-10-05T09:24:31.011Z,986.13
2017-10-05T09:25:31.019Z,986.12
2017-10-05T09:26:31.015Z,986.13
2017-10-05T09:27:31.044Z,986.00
2017-10-05T09:28:31.036Z,986.08
2017-10-05T09:29:31.053Z,986.01
2017-10-05T09:30:31.045Z,985.92
2017-10-05T09:31:31.089Z,985.92
2017-10-05T09:32:31.069Z,985.88
2017-10-05T09:33:31.065Z,985.97
2017-10-05T09:34:31.083Z,985.90
2017-10-05T09:35:31.089Z,985.93
2017-10-05T09:36:31.140Z,985.94
2017-10-05T09:37:31.111Z,985.90
2017-10-05T09:38:31.120Z,985.84
2017-10-05T09:39:31.131Z,985.86
2017-10-05T09:40:31.183Z,985.89
2017-10-05T09:41:31.158Z,985.92
2017-10-05T09:42:31.174Z,985.75
2017-10-05T09:43:31.178Z,985.79
2017-10-05T09:44:31.177Z,985.74
2017-10-05T09:45:31.204Z,985.81
2017-10-05T09:46:31.217Z,985.90
2017-10-05T09:47:31.206Z,985.84
2017-10-05T09:48:31.244Z,985.74
2017-10-05T09:49:31.243Z,985.69
2017-10-05T09:50:31.251Z,985.72
2017-10-05T09:51:31.254Z,985.72
2017-10-05T09:52:31.248Z,985.63
2017-10-05T09:53:31.264Z,985.78
2017-10-05T09:54:31.259Z,985.58
2017-10-05T09:55:31.302Z,985.71
2017-10-05T09:56:31.346Z,985.65
2017-10-05T09:57:31.313Z,985.64
2017-10-05T09:58:31.352Z,985.61
2017-10-05T09:59:31.333Z,985.56
2017-10-05T10:00:31.342Z,985.54
2017-10-05T10:01:31.371Z,985.57
2017-10-05T10:02:31.342Z,985.56
2017-10-05T10:03:31.380Z,985.63
2017-10-05T10:04:31.359Z,985.60
2017-10-05T10:05:31.377Z,985.53
2017-10-05T10:06:31.377Z,985.55
2017-10-05T10:07:31.438Z,985.54
2017-10-05T10:08:31.406Z,985.54
2017-10-05T10:09:31.422Z,985.52
2017-10-05T10:10:31.445Z,985.44
2017-10-05T10:11:31.493Z,985.42
2017-10-05T10:12:31.449Z,985.54
2017-10-05T10:13:31.444Z,985.44
2017-10-05T10:14:31.451Z,985.42
2017-10-05T10:15:31.464Z,985.51
2017-10-05T10:16:31.497Z,985.42
2017-10-05T10:17:31.514Z,985.44
2017-10-05T10:18:31.498Z,985.41
2017-10-05T10:19:31.557Z,985.33
2017-10-05T10:20:31.522Z,985.35
2017-10-05T10:21:31.533Z,985.35
2017-10-05T10:22:31.542Z,985.39
2017-10-05T10:23:31.562Z,985.43
2017-10-05T10:24:31.576Z,985.30
2017-10-05T10:25:31.584Z,985.27
2017-10-05T10:26:31.589Z,985.25
2017-10-05T10:27:31.610Z,985.28
2017-10-05T10:28:31.610Z,985.27
2017-10-05T10:29:31.619Z,985.21
2017-10-05T10:30:31.638Z,985.18
2017-10-05T10:31:31.630Z,985.13
2017-10-05T10:32:31.680Z,984.96
2017-10-05T10:33:31.647Z,985.10
2017-10-05T10:34:31.671Z,985.23
2017-10-05T10:35:31.677Z,985.07
2017-10-05T10:36:31.681Z,985.05
2017-10-05T10:37:31.723Z,985.05
2017-10-05T10:38:31.697Z,985.06
2017-10-05T10:39:31.734Z,985.09
2017-10-05T10:40:31.738Z,985.26
2017-10-05T10:41:31.735Z,985.04
2017-10-05T10:42:31.769Z,985.02
2017-10-05T10:43:31.764Z,985.03
2017-10-05T10:44:31.840Z,985.12
2017-10-05T10:45:31.779Z,985.12
2017-10-05T10:46:31.801Z,985.14
2017-10-05T10:47:31.826Z,985.03
2017-10-05T10:48:31.829Z,985.05
2017-10-05T10:49:31.853Z,985.04
2017-10-05T10:50:31.861Z,984.91
2017-10-05T10:51:31.852Z,985.03
2017-10-05T10:52:31.859Z,984.94
2017-10-05T10:53:31.886Z,984.95
2017-10-05T10:54:31.867Z,984.85
2017-10-05T10:55:31.874Z,984.90
2017-10-05T10:56:31.891Z,984.93
2017-10-05T10:57:31.915Z,984.83
2017-10-05T10:58:31.911Z,984.81
2017-10-05T10:59:31.945Z,984.75
2017-10-05T11:00:31.954Z,984.56
2017-10-05T11:01:31.969Z,984.70
2017-10-05T11:02:31.959Z,984.65
2017-10-05T11:03:31.961Z,984.71
2017-10-05T11:04:32.004Z,984.56
2017-10-05T11:05:31.990Z,984.61
2017-10-05T11:06:32.040Z,984.58
2017-10-05T11:07:32.002Z,984.55
2017-10-05T11:08:32.052Z,984.48
2017-10-05T11:09:32.059Z,984.44
2017-10-05T11:10:32.070Z,984.47
2017-10-05T11:11:32.038Z,984.31
2017-10-05T11:12:32.070Z,984.30
2017-10-05T11:13:32.076Z,984.24
2017-10-05T11:14:32.075Z,984.27
2017-10-05T11:15:32.106Z,984.27
2017-10-05T11:16:32.119Z,984.23
2017-10-05T11:17:32.131Z,984.17
2017-10-05T11:18:32.169Z,984.11
2017-10-05T11:19:32.124Z,984.22
2017-10-05T11:20:32.128Z,984.14
2017-10-05T11:21:32.147Z,984.41
2017-10-05T11:22:32.164Z,984.09
2017-10-05T11:23:32.173Z,984.24
2017-10-05T11:24:32.175Z,984.10
2017-10-05T11:25:32.215Z,984.12
2017-10-05T11:26:32.202Z,984.09
2017-10-05T11:27:32.223Z,984.12
2017-10-05T11:28:32.238Z,983.96
2017-10-05T11:29:32.248Z,984.07
2017-10-05T11:30:32.270Z,983.95
2017-10-05T11:31:32.256Z,983.89
2017-10-05T11:32:32.263Z,984.06
2017-10-05T11:33:32.271Z,983.86
2017-10-05T11:34:32.294Z,983.81
2017-10-05T11:35:32.290Z,983.81
2017-10-05T11:36:32.341Z,983.75
2017-10-05T11:37:32.308Z,983.79
2017-10-05T11:38:32.314Z,983.78
2017-10-05T11:39:32.360Z,983.72
2017-10-05T11:40:32.351Z,983.72
2017-10-05T11:41:32.350Z,983.59
2017-10-05T11:42:32.392Z,983.63
2017-10-05T11:43:32.362Z,983.65
2017-10-05T11:44:32.378Z,983.85
2017-10-05T11:45:32.406Z,983.74
2017-10-05T11:46:32.397Z,983.82
2017-10-05T11:47:32.416Z,983.89
2017-10-05T11:48:32.424Z,983.93
2017-10-05T11:49:32.421Z,983.81
2017-10-05T11:50:32.431Z,983.91
2017-10-05T11:51:32.452Z,983.74
2017-10-05T11:52:32.472Z,983.91
2017-10-05T11:53:32.501Z,983.86
2017-10-05T11:54:32.488Z,983.81
2017-10-05T11:55:32.491Z,983.80
2017-10-05T11:56:32.531Z,983.84
2017-10-05T11:57:32.541Z,983.92
2017-10-05T11:58:32.536Z,983.83
2017-10-05T11:59:32.531Z,984.15
2017-10-05T12:00:32.564Z,983.89
2017-10-05T12:01:32.597Z,983.97
2017-10-05T12:02:32.584Z,984.00
2017-10-05T12:03:32.593Z,983.77
2017-10-05T12:04:32.591Z,983.94
2017-10-05T12:05:32.613Z,983.99
2017-10-05T12:06:32.616Z,983.98
2017-10-05T12:07:32.653Z,984.04
2017-10-05T12:08:32.616Z,984.11
2017-10-05T12:09:32.636Z,984.06
2017-10-05T12:10:32.650Z,984.11
2017-10-05T12:11:32.696Z,984.12
2017-10-05T12:12:32.722Z,984.07
2017-10-05T12:13:32.703Z,984.27
2017-10-05T12:14:32.733Z,984.08
2017-10-05T12:15:32.711Z,984.06
2017-10-05T12:16:32.730Z,984.05
2017-10-05T12:17:32.725Z,984.16
2017-10-05T12:18:32.755Z,984.11
2017-10-05T12:19:32.770Z,984.08
2017-10-05T12:20:32.762Z,984.06
2017-10-05T12:21:32.760Z,984.09
2017-10-05T12:22:32.792Z,984.11
2017-10-05T12:23:32.815Z,984.26
2017-10-05T12:24:32.802Z,984.09
2017-10-05T12:25:32.814Z,984.20
2017-10-05T12:26:32.836Z,984.15
2017-10-05T12:27:32.832Z,984.19
2017-10-05T12:28:32.849Z,984.11